sensor_id;sensor_type;location;lat;lon;timestamp;P1;durP1;ratioP1;P2;durP2;ratioP2
37891;SDS011;45797;47.466;9.486;2022-12-07T00:05:02;11.68;;;5.05;;
37891;SDS011;45797;47.466;9.486;2022-12-07T00:15:08;13.32;;;4.88;;
37891;SDS011;45797;47.466;9.486;2022-12-07T00:20:10;14.25;;;5.68;;
37891;SDS011;45797;47.466;9.486;2022-12-07T00:25:16;16.25;;;5.80;;
37891;SDS011;45797;47.466;9.486;2022-12-07T00:30:18;13.95;;;5.88;;
37891;SDS011;45797;47.466;9.486;2022-12-07T00:35:28;16.30;;;5.55;;
37891;SDS011;45797;47.466;9.486;2022-12-07T00:40:28;13.80;;;6.18;;
37891;SDS011;45797;47.466;9.486;2022-12-07T00:45:29;13.60;;;6.07;;
37891;SDS011;45797;47.466;9.486;2022-12-07T00:50:38;10.57;;;4.47;;
37891;SDS011;45797;47.466;9.486;2022-12-07T00:55:44;17.10;;;6.45;;
37891;SDS011;45797;47.466;9.486;2022-12-07T01:01:00;14.13;;;6.50;;
37891;SDS011;45797;47.466;9.486;2022-12-07T01:06:04;12.10;;;5.60;;
37891;SDS011;45797;47.466;9.486;2022-12-07T01:11:07;18.52;;;6.22;;
37891;SDS011;45797;47.466;9.486;2022-12-07T01:16:08;16.73;;;6.18;;
37891;SDS011;45797;47.466;9.486;2022-12-07T01:21:13;15.32;;;6.10;;
37891;SDS011;45797;47.466;9.486;2022-12-07T01:26:18;16.75;;;6.18;;
37891;SDS011;45797;47.466;9.486;2022-12-07T01:31:21;13.02;;;5.30;;
37891;SDS011;45797;47.466;9.486;2022-12-07T01:41:40;12.82;;;5.63;;
37891;SDS011;45797;47.466;9.486;2022-12-07T01:47:00;14.48;;;6.35;;
37891;SDS011;45797;47.466;9.486;2022-12-07T01:57:29;12.93;;;5.07;;
37891;SDS011;45797;47.466;9.486;2022-12-07T02:02:34;11.98;;;4.60;;
37891;SDS011;45797;47.466;9.486;2022-12-07T02:12:58;9.45;;;3.83;;
37891;SDS011;45797;47.466;9.486;2022-12-07T02:18:07;12.43;;;4.30;;
37891;SDS011;45797;47.466;9.486;2022-12-07T02:34:34;14.93;;;5.00;;
37891;SDS011;45797;47.466;9.486;2022-12-07T02:40:07;14.75;;;5.93;;
37891;SDS011;45797;47.466;9.486;2022-12-07T02:45:21;15.90;;;5.32;;
37891;SDS011;45797;47.466;9.486;2022-12-07T02:50:26;17.67;;;5.88;;
37891;SDS011;45797;47.466;9.486;2022-12-07T02:55:29;12.90;;;5.55;;
37891;SDS011;45797;47.466;9.486;2022-12-07T03:00:35;15.35;;;5.10;;
37891;SDS011;45797;47.466;9.486;2022-12-07T03:16:56;15.77;;;5.82;;
37891;SDS011;45797;47.466;9.486;2022-12-07T03:22:03;14.50;;;5.45;;
37891;SDS011;45797;47.466;9.486;2022-12-07T03:32:31;19.17;;;6.30;;
37891;SDS011;45797;47.466;9.486;2022-12-07T03:37:52;11.35;;;5.32;;
37891;SDS011;45797;47.466;9.486;2022-12-07T03:53:12;15.73;;;4.57;;
37891;SDS011;45797;47.466;9.486;2022-12-07T03:58:34;16.42;;;5.05;;
37891;SDS011;45797;47.466;9.486;2022-12-07T04:03:36;15.75;;;5.32;;
37891;SDS011;45797;47.466;9.486;2022-12-07T04:08:49;16.38;;;6.10;;
37891;SDS011;45797;47.466;9.486;2022-12-07T04:14:02;15.98;;;5.50;;
37891;SDS011;45797;47.466;9.486;2022-12-07T04:19:21;17.60;;;5.80;;
37891;SDS011;45797;47.466;9.486;2022-12-07T04:24:25;18.85;;;6.00;;
37891;SDS011;45797;47.466;9.486;2022-12-07T04:29:40;15.00;;;5.15;;
37891;SDS011;45797;47.466;9.486;2022-12-07T04:34:48;14.75;;;5.05;;
37891;SDS011;45797;47.466;9.486;2022-12-07T04:39:48;18.42;;;5.93;;
37891;SDS011;45797;47.466;9.486;2022-12-07T04:44:51;21.00;;;5.57;;
37891;SDS011;45797;47.466;9.486;2022-12-07T04:49:52;17.33;;;5.82;;
37891;SDS011;45797;47.466;9.486;2022-12-07T05:00:03;14.50;;;5.45;;
37891;SDS011;45797;47.466;9.486;2022-12-07T05:05:21;17.30;;;5.53;;
37891;SDS011;45797;47.466;9.486;2022-12-07T05:15:35;20.33;;;11.55;;
37891;SDS011;45797;47.466;9.486;2022-12-07T05:20:35;15.52;;;7.60;;
37891;SDS011;45797;47.466;9.486;2022-12-07T05:30:38;14.82;;;5.43;;
37891;SDS011;45797;47.466;9.486;2022-12-07T05:35:40;11.10;;;4.85;;
37891;SDS011;45797;47.466;9.486;2022-12-07T05:40:40;11.25;;;5.13;;
37891;SDS011;45797;47.466;9.486;2022-12-07T05:50:47;11.90;;;5.05;;
37891;SDS011;45797;47.466;9.486;2022-12-07T05:55:48;13.38;;;5.78;;
37891;SDS011;45797;47.466;9.486;2022-12-07T06:05:55;9.55;;;4.07;;
37891;SDS011;45797;47.466;9.486;2022-12-07T06:10:56;15.60;;;5.15;;
37891;SDS011;45797;47.466;9.486;2022-12-07T06:16:28;11.82;;;4.70;;
37891;SDS011;45797;47.466;9.486;2022-12-07T06:26:42;13.18;;;5.88;;
37891;SDS011;45797;47.466;9.486;2022-12-07T06:31:42;12.55;;;5.15;;
37891;SDS011;45797;47.466;9.486;2022-12-07T06:36:42;11.48;;;5.45;;
37891;SDS011;45797;47.466;9.486;2022-12-07T06:41:44;14.65;;;4.75;;
37891;SDS011;45797;47.466;9.486;2022-12-07T06:46:48;13.95;;;5.13;;
37891;SDS011;45797;47.466;9.486;2022-12-07T06:51:49;15.60;;;4.90;;
37891;SDS011;45797;47.466;9.486;2022-12-07T06:56:49;12.65;;;4.43;;
37891;SDS011;45797;47.466;9.486;2022-12-07T07:01:50;12.77;;;5.25;;
37891;SDS011;45797;47.466;9.486;2022-12-07T07:06:56;13.88;;;5.13;;
37891;SDS011;45797;47.466;9.486;2022-12-07T07:11:57;12.80;;;5.35;;
37891;SDS011;45797;47.466;9.486;2022-12-07T07:17:04;10.65;;;4.47;;
37891;SDS011;45797;47.466;9.486;2022-12-07T07:22:07;18.90;;;6.32;;
37891;SDS011;45797;47.466;9.486;2022-12-07T07:27:23;16.00;;;5.00;;
37891;SDS011;45797;47.466;9.486;2022-12-07T07:48:48;13.57;;;5.20;;
37891;SDS011;45797;47.466;9.486;2022-12-07T07:53:49;18.75;;;5.82;;
37891;SDS011;45797;47.466;9.486;2022-12-07T07:58:54;14.45;;;4.90;;
37891;SDS011;45797;47.466;9.486;2022-12-07T08:11:44;14.32;;;5.28;;
37891;SDS011;45797;47.466;9.486;2022-12-07T08:23:10;11.40;;;4.53;;
37891;SDS011;45797;47.466;9.486;2022-12-07T08:28:28;9.93;;;3.97;;
37891;SDS011;45797;47.466;9.486;2022-12-07T08:33:30;17.50;;;4.93;;
37891;SDS011;45797;47.466;9.486;2022-12-07T08:44:12;15.57;;;5.28;;
37891;SDS011;45797;47.466;9.486;2022-12-07T08:49:22;15.45;;;5.47;;
37891;SDS011;45797;47.466;9.486;2022-12-07T08:54:29;18.38;;;6.00;;
37891;SDS011;45797;47.466;9.486;2022-12-07T08:59:32;12.95;;;5.40;;
37891;SDS011;45797;47.466;9.486;2022-12-07T09:04:49;14.57;;;5.60;;
37891;SDS011;45797;47.466;9.486;2022-12-07T09:09:49;14.05;;;5.07;;
37891;SDS011;45797;47.466;9.486;2022-12-07T09:14:50;14.35;;;5.18;;
37891;SDS011;45797;47.466;9.486;2022-12-07T09:19:57;18.33;;;5.95;;
37891;SDS011;45797;47.466;9.486;2022-12-07T09:25:14;12.57;;;4.53;;
37891;SDS011;45797;47.466;9.486;2022-12-07T09:30:22;11.43;;;4.75;;
37891;SDS011;45797;47.466;9.486;2022-12-07T09:35:23;15.80;;;5.90;;
37891;SDS011;45797;47.466;9.486;2022-12-07T09:40:23;15.82;;;5.38;;
37891;SDS011;45797;47.466;9.486;2022-12-07T09:45:30;12.68;;;5.20;;
37891;SDS011;45797;47.466;9.486;2022-12-07T09:50:36;14.40;;;5.07;;
37891;SDS011;45797;47.466;9.486;2022-12-07T09:55:46;16.27;;;5.75;;
37891;SDS011;45797;47.466;9.486;2022-12-07T10:00:48;13.00;;;4.80;;
37891;SDS011;45797;47.466;9.486;2022-12-07T10:05:52;14.27;;;4.35;;
37891;SDS011;45797;47.466;9.486;2022-12-07T10:10:55;15.65;;;6.05;;
37891;SDS011;45797;47.466;9.486;2022-12-07T10:21:41;12.77;;;5.00;;
37891;SDS011;45797;47.466;9.486;2022-12-07T10:32:34;15.80;;;4.88;;
37891;SDS011;45797;47.466;9.486;2022-12-07T10:37:44;14.30;;;5.32;;
37891;SDS011;45797;47.466;9.486;2022-12-07T10:43:03;13.30;;;4.70;;
37891;SDS011;45797;47.466;9.486;2022-12-07T10:48:11;14.20;;;4.97;;
37891;SDS011;45797;47.466;9.486;2022-12-07T10:53:24;14.70;;;5.60;;
37891;SDS011;45797;47.466;9.486;2022-12-07T11:14:44;19.70;;;5.40;;
37891;SDS011;45797;47.466;9.486;2022-12-07T11:25:59;10.45;;;4.45;;
37891;SDS011;45797;47.466;9.486;2022-12-07T11:41:34;7.22;;;2.78;;
37891;SDS011;45797;47.466;9.486;2022-12-07T11:52:09;6.40;;;2.60;;
37891;SDS011;45797;47.466;9.486;2022-12-07T11:57:41;6.80;;;2.95;;
37891;SDS011;45797;47.466;9.486;2022-12-07T12:08:22;5.85;;;2.65;;
37891;SDS011;45797;47.466;9.486;2022-12-07T12:14:08;7.68;;;3.25;;
37891;SDS011;45797;47.466;9.486;2022-12-07T12:19:19;6.63;;;2.80;;
37891;SDS011;45797;47.466;9.486;2022-12-07T12:24:28;7.60;;;2.67;;
37891;SDS011;45797;47.466;9.486;2022-12-07T12:29:50;9.02;;;2.60;;
37891;SDS011;45797;47.466;9.486;2022-12-07T12:35:01;6.63;;;2.75;;
37891;SDS011;45797;47.466;9.486;2022-12-07T12:45:30;8.75;;;3.00;;
37891;SDS011;45797;47.466;9.486;2022-12-07T13:01:38;7.47;;;2.95;;
37891;SDS011;45797;47.466;9.486;2022-12-07T13:06:47;6.93;;;2.75;;
37891;SDS011;45797;47.466;9.486;2022-12-07T13:11:48;7.22;;;2.83;;
37891;SDS011;45797;47.466;9.486;2022-12-07T13:27:59;8.65;;;2.88;;
37891;SDS011;45797;47.466;9.486;2022-12-07T13:33:04;6.47;;;2.70;;
37891;SDS011;45797;47.466;9.486;2022-12-07T13:38:05;8.65;;;2.90;;
37891;SDS011;45797;47.466;9.486;2022-12-07T13:43:16;8.82;;;3.08;;
37891;SDS011;45797;47.466;9.486;2022-12-07T13:48:31;8.25;;;2.60;;
37891;SDS011;45797;47.466;9.486;2022-12-07T13:59:15;9.90;;;3.60;;
37891;SDS011;45797;47.466;9.486;2022-12-07T14:09:28;7.75;;;3.15;;
37891;SDS011;45797;47.466;9.486;2022-12-07T14:14:30;7.88;;;2.88;;
37891;SDS011;45797;47.466;9.486;2022-12-07T14:19:46;7.07;;;2.78;;
37891;SDS011;45797;47.466;9.486;2022-12-07T14:24:50;9.50;;;2.85;;
37891;SDS011;45797;47.466;9.486;2022-12-07T14:29:58;6.13;;;2.42;;
37891;SDS011;45797;47.466;9.486;2022-12-07T14:40:23;7.88;;;2.72;;
37891;SDS011;45797;47.466;9.486;2022-12-07T14:45:28;11.98;;;3.78;;
37891;SDS011;45797;47.466;9.486;2022-12-07T14:50:40;9.27;;;3.30;;
37891;SDS011;45797;47.466;9.486;2022-12-07T14:55:45;7.85;;;3.00;;
37891;SDS011;45797;47.466;9.486;2022-12-07T15:00:45;6.75;;;3.13;;
37891;SDS011;45797;47.466;9.486;2022-12-07T15:05:48;10.95;;;3.42;;
37891;SDS011;45797;47.466;9.486;2022-12-07T15:10:59;8.57;;;2.97;;
37891;SDS011;45797;47.466;9.486;2022-12-07T15:15:59;6.93;;;2.67;;
37891;SDS011;45797;47.466;9.486;2022-12-07T15:21:01;9.23;;;3.08;;
37891;SDS011;45797;47.466;9.486;2022-12-07T15:26:02;7.28;;;3.10;;
37891;SDS011;45797;47.466;9.486;2022-12-07T15:31:10;8.73;;;3.63;;
37891;SDS011;45797;47.466;9.486;2022-12-07T15:41:26;8.18;;;3.22;;
37891;SDS011;45797;47.466;9.486;2022-12-07T15:46:35;6.70;;;2.55;;
37891;SDS011;45797;47.466;9.486;2022-12-07T15:51:39;7.07;;;2.97;;
37891;SDS011;45797;47.466;9.486;2022-12-07T15:56:48;7.13;;;2.50;;
37891;SDS011;45797;47.466;9.486;2022-12-07T16:01:49;5.90;;;2.53;;
37891;SDS011;45797;47.466;9.486;2022-12-07T16:12:01;8.52;;;3.40;;
37891;SDS011;45797;47.466;9.486;2022-12-07T16:22:06;7.47;;;3.00;;
37891;SDS011;45797;47.466;9.486;2022-12-07T16:27:23;7.53;;;3.10;;
37891;SDS011;45797;47.466;9.486;2022-12-07T16:42:52;7.25;;;2.72;;
37891;SDS011;45797;47.466;9.486;2022-12-07T16:47:53;5.45;;;2.63;;
37891;SDS011;45797;47.466;9.486;2022-12-07T16:53:11;7.57;;;2.97;;
37891;SDS011;45797;47.466;9.486;2022-12-07T16:58:14;6.60;;;2.65;;
37891;SDS011;45797;47.466;9.486;2022-12-07T17:03:16;6.40;;;2.75;;
37891;SDS011;45797;47.466;9.486;2022-12-07T17:13:53;6.38;;;2.72;;
37891;SDS011;45797;47.466;9.486;2022-12-07T17:19:13;8.45;;;3.45;;
37891;SDS011;45797;47.466;9.486;2022-12-07T17:29:19;7.68;;;2.92;;
37891;SDS011;45797;47.466;9.486;2022-12-07T17:34:26;9.90;;;3.03;;
37891;SDS011;45797;47.466;9.486;2022-12-07T17:39:29;8.00;;;3.28;;
37891;SDS011;45797;47.466;9.486;2022-12-07T17:49:49;7.10;;;3.05;;
37891;SDS011;45797;47.466;9.486;2022-12-07T18:05:13;8.73;;;3.50;;
37891;SDS011;45797;47.466;9.486;2022-12-07T18:10:19;8.02;;;2.58;;
37891;SDS011;45797;47.466;9.486;2022-12-07T18:15:21;8.63;;;3.08;;
37891;SDS011;45797;47.466;9.486;2022-12-07T18:25:24;7.95;;;3.05;;
37891;SDS011;45797;47.466;9.486;2022-12-07T18:30:31;13.43;;;4.88;;
37891;SDS011;45797;47.466;9.486;2022-12-07T18:35:32;10.65;;;3.40;;
37891;SDS011;45797;47.466;9.486;2022-12-07T18:40:36;11.35;;;3.60;;
37891;SDS011;45797;47.466;9.486;2022-12-07T18:45:38;7.93;;;2.95;;
37891;SDS011;45797;47.466;9.486;2022-12-07T18:50:42;13.63;;;4.70;;
37891;SDS011;45797;47.466;9.486;2022-12-07T18:55:46;13.63;;;4.25;;
37891;SDS011;45797;47.466;9.486;2022-12-07T19:00:54;7.63;;;3.20;;
37891;SDS011;45797;47.466;9.486;2022-12-07T19:05:56;9.65;;;3.10;;
37891;SDS011;45797;47.466;9.486;2022-12-07T19:10:58;6.07;;;2.75;;
37891;SDS011;45797;47.466;9.486;2022-12-07T19:16:21;10.25;;;3.55;;
37891;SDS011;45797;47.466;9.486;2022-12-07T19:21:21;7.80;;;3.15;;
37891;SDS011;45797;47.466;9.486;2022-12-07T19:31:51;11.65;;;3.90;;
37891;SDS011;45797;47.466;9.486;2022-12-07T19:36:52;8.40;;;3.20;;
37891;SDS011;45797;47.466;9.486;2022-12-07T19:47:12;9.15;;;3.28;;
37891;SDS011;45797;47.466;9.486;2022-12-07T19:57:36;7.50;;;3.08;;
37891;SDS011;45797;47.466;9.486;2022-12-07T20:02:36;6.93;;;2.65;;
37891;SDS011;45797;47.466;9.486;2022-12-07T20:23:35;6.57;;;2.92;;
37891;SDS011;45797;47.466;9.486;2022-12-07T20:28:36;7.38;;;2.83;;
37891;SDS011;45797;47.466;9.486;2022-12-07T20:33:37;6.70;;;2.65;;
37891;SDS011;45797;47.466;9.486;2022-12-07T20:38:40;6.88;;;3.17;;
37891;SDS011;45797;47.466;9.486;2022-12-07T20:43:41;7.03;;;2.78;;
37891;SDS011;45797;47.466;9.486;2022-12-07T20:48:45;5.28;;;2.50;;
37891;SDS011;45797;47.466;9.486;2022-12-07T20:53:51;5.85;;;2.33;;
37891;SDS011;45797;47.466;9.486;2022-12-07T20:59:10;4.60;;;2.40;;
37891;SDS011;45797;47.466;9.486;2022-12-07T21:04:13;5.35;;;2.60;;
37891;SDS011;45797;47.466;9.486;2022-12-07T21:09:15;8.05;;;2.75;;
37891;SDS011;45797;47.466;9.486;2022-12-07T21:19:43;8.93;;;3.75;;
37891;SDS011;45797;47.466;9.486;2022-12-07T21:24:43;8.70;;;2.92;;
37891;SDS011;45797;47.466;9.486;2022-12-07T21:29:44;7.15;;;2.80;;
37891;SDS011;45797;47.466;9.486;2022-12-07T21:34:45;7.13;;;2.70;;
37891;SDS011;45797;47.466;9.486;2022-12-07T21:39:47;8.00;;;3.10;;
37891;SDS011;45797;47.466;9.486;2022-12-07T21:44:47;8.85;;;2.88;;
37891;SDS011;45797;47.466;9.486;2022-12-07T21:49:49;8.05;;;3.55;;
37891;SDS011;45797;47.466;9.486;2022-12-07T22:00:08;6.72;;;3.03;;
37891;SDS011;45797;47.466;9.486;2022-12-07T22:05:11;8.45;;;4.10;;
37891;SDS011;45797;47.466;9.486;2022-12-07T22:10:12;7.35;;;2.78;;
37891;SDS011;45797;47.466;9.486;2022-12-07T22:20:31;7.38;;;3.30;;
37891;SDS011;45797;47.466;9.486;2022-12-07T22:25:33;7.88;;;3.45;;
37891;SDS011;45797;47.466;9.486;2022-12-07T22:40:50;7.28;;;3.67;;
37891;SDS011;45797;47.466;9.486;2022-12-07T22:45:57;7.63;;;3.58;;
37891;SDS011;45797;47.466;9.486;2022-12-07T22:50:59;9.20;;;3.72;;
37891;SDS011;45797;47.466;9.486;2022-12-07T22:56:00;8.68;;;3.60;;
37891;SDS011;45797;47.466;9.486;2022-12-07T23:01:15;8.10;;;3.25;;
37891;SDS011;45797;47.466;9.486;2022-12-07T23:06:20;8.88;;;4.10;;
37891;SDS011;45797;47.466;9.486;2022-12-07T23:11:25;10.38;;;3.85;;
37891;SDS011;45797;47.466;9.486;2022-12-07T23:16:52;8.63;;;3.65;;
37891;SDS011;45797;47.466;9.486;2022-12-07T23:27:02;7.85;;;3.55;;
37891;SDS011;45797;47.466;9.486;2022-12-07T23:32:03;11.57;;;4.07;;
37891;SDS011;45797;47.466;9.486;2022-12-07T23:37:10;10.30;;;4.03;;
37891;SDS011;45797;47.466;9.486;2022-12-07T23:47:36;12.02;;;4.65;;
37891;SDS011;45797;47.466;9.486;2022-12-07T23:52:37;11.73;;;4.22;;
37891;SDS011;45797;47.466;9.486;2022-12-07T23:57:46;9.52;;;4.38;;
